Time;durP1;ratioP1;P1;durP2;ratioP2;P2;SDS_P1;SDS_P2;PMS_P1;PMS_P2;Temp;Humidity;BMP_temperature;BMP_pressure;BME280_temperature;BME280_humidity;BME280_pressure;Samples;Min_cycle;Max_cycle;Signal;HPM_P1;HPM_P2
2021/01/07 00:03:08;;;;;;;9.43;5.10;;;18.00;52.30;;;;;;10209637;29;20054;-62
2021/01/07 00:08:09;;;;;;;8.52;4.63;;;18.00;52.30;;;;;;10205419;29;20160;-62
2021/01/07 00:13:11;;;;;;;6.43;3.80;;;18.00;52.30;;;;;;10206453;29;20484;-61
2021/01/07 00:18:12;;;;;;;6.32;4.00;;;17.90;52.30;;;;;;10206514;29;20051;-61
2021/01/07 00:23:14;;;;;;;6.53;4.00;;;17.90;52.30;;;;;;10206485;29;20606;-61
2021/01/07 00:28:17;;;;;;;7.07;4.32;;;17.90;52.30;;;;;;10205443;29;20069;-60
2021/01/07 00:33:19;;;;;;;7.00;4.18;;;17.90;52.30;;;;;;10206003;29;20052;-61
2021/01/07 00:38:20;;;;;;;7.78;4.45;;;17.90;52.30;;;;;;10205423;29;20514;-62
2021/01/07 00:43:22;;;;;;;7.93;4.30;;;17.90;52.30;;;;;;10204301;29;20142;-59
2021/01/07 00:48:24;;;;;;;6.72;3.80;;;17.80;52.30;;;;;;10206403;29;20051;-59
2021/01/07 00:53:25;;;;;;;7.75;4.10;;;17.80;52.20;;;;;;10204953;29;20051;-62
2021/01/07 00:58:27;;;;;;;7.97;4.32;;;17.80;52.30;;;;;;10203759;29;20063;-62
2021/01/07 01:03:28;;;;;;;9.23;4.80;;;17.80;52.20;;;;;;10202420;29;20144;-62
2021/01/07 01:08:30;;;;;;;9.20;4.75;;;17.80;52.20;;;;;;10200238;29;20047;-62
2021/01/07 01:13:32;;;;;;;7.45;4.57;;;17.80;52.70;;;;;;10201598;29;20047;-62
2021/01/07 01:18:33;;;;;;;7.93;4.40;;;17.70;52.10;;;;;;10202719;29;20138;-61
2021/01/07 01:23:34;;;;;;;7.20;3.97;;;17.70;52.00;;;;;;10203511;29;20063;-62
2021/01/07 01:28:37;;;;;;;7.75;4.70;;;17.70;52.00;;;;;;10204981;29;20053;-61
2021/01/07 01:33:38;;;;;;;6.30;3.78;;;17.70;52.00;;;;;;10205395;29;20062;-62
2021/01/07 01:38:39;;;;;;;5.88;3.65;;;17.70;52.00;;;;;;10207343;29;20101;-62
2021/01/07 01:43:41;;;;;;;5.93;3.75;;;17.70;52.00;;;;;;10203734;29;20056;-62
2021/01/07 01:48:44;;;;;;;6.90;3.72;;;17.70;52.10;;;;;;10207259;29;20070;-62
2021/01/07 01:53:46;;;;;;;5.60;3.47;;;17.60;52.50;;;;;;10204380;29;20559;-62
2021/01/07 01:58:49;;;;;;;4.32;2.65;;;17.60;52.00;;;;;;10205734;29;20131;-61
2021/01/07 02:03:53;;;;;;;5.88;3.30;;;17.60;52.00;;;;;;10205070;29;20608;-61
2021/01/07 02:08:55;;;;;;;5.38;3.05;;;17.60;52.00;;;;;;10197284;29;20066;-62
2021/01/07 02:13:57;;;;;;;4.97;3.00;;;17.60;52.00;;;;;;10204207;29;20132;-62
2021/01/07 02:18:59;;;;;;;4.53;2.42;;;17.60;52.00;;;;;;10206608;29;20480;-62
2021/01/07 02:24:01;;;;;;;4.38;2.78;;;17.60;52.00;;;;;;10203940;29;20048;-62
2021/01/07 02:29:02;;;;;;;5.45;2.90;;;17.60;52.00;;;;;;10208751;29;20130;-62
2021/01/07 02:34:04;;;;;;;4.13;2.60;;;17.60;52.00;;;;;;10209874;29;20135;-62
2021/01/07 02:39:06;;;;;;;5.13;2.33;;;17.50;51.90;;;;;;10210526;29;20505;-62
2021/01/07 02:44:09;;;;;;;4.65;2.22;;;17.50;51.90;;;;;;10209379;29;20392;-62
2021/01/07 02:49:10;;;;;;;2.70;1.80;;;17.50;51.90;;;;;;10212549;29;20130;-62
2021/01/07 02:54:12;;;;;;;3.60;2.10;;;17.50;51.90;;;;;;10208337;29;20498;-62
2021/01/07 02:59:14;;;;;;;3.83;2.20;;;17.50;52.00;;;;;;10210782;29;20043;-61
2021/01/07 03:04:15;;;;;;;4.22;2.47;;;17.50;51.90;;;;;;10211393;29;20113;-62
2021/01/07 03:09:17;;;;;;;5.03;1.70;;;17.50;52.00;;;;;;10210086;29;20067;-62
2021/01/07 03:14:18;;;;;;;3.20;1.58;;;17.50;52.00;;;;;;10211476;29;20135;-63
2021/01/07 03:19:20;;;;;;;3.65;2.22;;;17.50;52.00;;;;;;10209806;29;20131;-62
2021/01/07 03:24:22;;;;;;;2.13;1.40;;;17.40;52.00;;;;;;10211268;29;20146;-62
2021/01/07 03:29:23;;;;;;;2.50;1.70;;;17.40;52.00;;;;;;10207747;29;20190;-63
2021/01/07 03:34:25;;;;;;;2.13;1.73;;;17.50;52.60;;;;;;10209945;29;20519;-62
2021/01/07 03:39:27;;;;;;;1.92;1.42;;;17.40;52.00;;;;;;10208787;29;20047;-62
2021/01/07 03:44:28;;;;;;;2.95;1.33;;;17.40;52.00;;;;;;10210014;29;20065;-62
2021/01/07 03:49:29;;;;;;;3.17;1.30;;;17.40;52.00;;;;;;10208210;29;20052;-63
2021/01/07 03:54:32;;;;;;;1.70;1.27;;;17.40;52.00;;;;;;10209006;29;20134;-62
2021/01/07 03:59:33;;;;;;;2.28;1.40;;;17.40;52.00;;;;;;10208460;29;20070;-59
2021/01/07 04:04:34;;;;;;;1.92;1.20;;;17.40;52.00;;;;;;10209287;29;20058;-61
2021/01/07 04:09:36;;;;;;;4.18;1.42;;;17.40;52.10;;;;;;10207959;29;20487;-62
2021/01/07 04:14:37;;;;;;;1.70;1.25;;;17.40;52.10;;;;;;10209634;29;20941;-61
2021/01/07 04:19:41;;;;;;;3.03;1.75;;;17.40;52.10;;;;;;10207943;29;20070;-61
2021/01/07 04:24:43;;;;;;;3.00;1.80;;;17.40;52.10;;;;;;10208067;29;20047;-62
2021/01/07 04:29:44;;;;;;;2.20;1.40;;;17.40;52.10;;;;;;10207633;29;20043;-62
2021/01/07 04:34:46;;;;;;;3.38;1.17;;;17.30;52.10;;;;;;10209366;29;20044;-62
2021/01/07 04:39:48;;;;;;;3.50;0.90;;;17.30;52.10;;;;;;10205093;29;20047;-62
2021/01/07 04:44:50;;;;;;;1.73;0.98;;;17.30;52.10;;;;;;10205278;29;20471;-62
2021/01/07 04:49:52;;;;;;;2.55;1.10;;;17.30;52.10;;;;;;10203993;29;20583;-62
2021/01/07 04:54:55;;;;;;;2.42;0.80;;;17.30;52.10;;;;;;10204742;29;20043;-62
2021/01/07 04:59:56;;;;;;;3.80;1.10;;;17.30;52.10;;;;;;10206419;29;20052;-62
2021/01/07 05:04:58;;;;;;;1.48;0.95;;;17.30;52.20;;;;;;10203353;29;20103;-62
2021/01/07 05:10:03;;;;;;;1.90;1.00;;;17.30;52.20;;;;;;10207128;29;20236;-62
2021/01/07 05:15:05;;;;;;;1.08;0.70;;;17.20;52.10;;;;;;10206176;29;20495;-62
2021/01/07 05:20:10;;;;;;;0.60;0.60;;;17.30;52.30;;;;;;10205002;29;20043;-62
2021/01/07 05:25:14;;;;;;;0.70;0.60;;;17.20;52.20;;;;;;10203809;29;20055;-61
2021/01/07 05:30:16;;;;;;;0.90;0.50;;;17.20;52.20;;;;;;10204919;29;20135;-62
2021/01/07 05:35:20;;;;;;;0.88;0.60;;;17.20;52.10;;;;;;10201678;29;20040;-62
2021/01/07 05:40:23;;;;;;;1.00;0.70;;;17.20;52.10;;;;;;10205074;29;20070;-62
2021/01/07 05:45:34;;;;;;;1.45;0.60;;;17.20;52.10;;;;;;10203386;29;20095;-62
2021/01/07 05:50:38;;;;;;;1.33;0.45;;;17.20;52.10;;;;;;10203787;29;20101;-62
2021/01/07 05:55:41;;;;;;;1.17;0.70;;;17.20;52.10;;;;;;10202918;29;20072;-62
2021/01/07 06:00:44;;;;;;;1.95;0.75;;;17.20;52.20;;;;;;10202100;29;20048;-62
2021/01/07 06:05:46;;;;;;;1.00;0.65;;;17.20;52.20;;;;;;10209333;29;20044;-62
2021/01/07 06:10:48;;;;;;;1.42;0.70;;;17.20;52.20;;;;;;10212641;29;20090;-70
2021/01/07 06:15:49;;;;;;;3.20;0.88;;;17.20;52.20;;;;;;10212087;29;20389;-68
2021/01/07 06:21:01;;;;;;;5.90;0.60;;;17.20;52.20;;;;;;10213036;29;20043;-61
2021/01/07 06:26:24;;;;;;;1.10;0.55;;;17.20;52.20;;;;;;10205974;29;20488;-61
2021/01/07 06:31:32;;;;;;;1.63;0.70;;;17.20;52.20;;;;;;10209678;29;20058;-61
2021/01/07 06:36:38;;;;;;;2.00;0.50;;;17.20;52.20;;;;;;10213081;29;20054;-62
2021/01/07 06:41:52;;;;;;;2.05;0.47;;;17.20;52.30;;;;;;10210809;29;20051;-62
2021/01/07 06:46:54;;;;;;;1.88;0.60;;;17.20;52.30;;;;;;10212093;29;20066;-62
2021/01/07 06:51:57;;;;;;;1.10;0.52;;;17.20;52.30;;;;;;10209483;29;20473;-61
2021/01/07 06:57:03;;;;;;;1.95;0.60;;;17.20;52.30;;;;;;10213169;29;20052;-61
2021/01/07 07:02:06;;;;;;;2.30;0.60;;;17.20;52.20;;;;;;10205172;29;20135;-64
2021/01/07 07:07:42;;;;;;;0.50;0.40;;;17.20;52.20;;;;;;10176318;29;20393;-62
2021/01/07 07:12:47;;;;;;;3.97;0.75;;;17.10;52.20;;;;;;10190836;29;20067;-61
2021/01/07 07:17:48;;;;;;;1.33;0.70;;;17.10;52.20;;;;;;10189507;29;20409;-62
2021/01/07 07:22:50;;;;;;;1.70;0.67;;;17.10;52.20;;;;;;10196434;29;20071;-61
2021/01/07 07:27:54;;;;;;;2.17;1.00;;;17.10;52.20;;;;;;10202707;29;20048;-61
2021/01/07 07:32:57;;;;;;;1.48;0.60;;;17.10;52.20;;;;;;10205336;29;20047;-62
2021/01/07 07:37:58;;;;;;;3.50;0.68;;;17.10;52.20;;;;;;10208693;29;20051;-61
2021/01/07 07:43:01;;;;;;;1.77;0.90;;;17.10;52.20;;;;;;10205567;29;20082;-62
2021/01/07 07:48:04;;;;;;;3.20;0.73;;;17.10;52.20;;;;;;10205802;29;20118;-60
2021/01/07 07:53:05;;;;;;;4.47;0.90;;;17.10;52.20;;;;;;10205472;29;20130;-61
2021/01/07 07:58:09;;;;;;;1.58;0.85;;;17.10;52.20;;;;;;10207734;29;20047;-61
2021/01/07 08:03:10;;;;;;;2.75;1.20;;;17.00;52.10;;;;;;10206793;29;20052;-61
2021/01/07 08:08:20;;;;;;;4.03;1.10;;;17.00;52.10;;;;;;10208970;29;20056;-61
2021/01/07 08:13:24;;;;;;;3.50;1.15;;;17.00;52.10;;;;;;10207148;29;20079;-60
2021/01/07 08:18:26;;;;;;;4.88;1.27;;;17.00;52.10;;;;;;10208080;29;20134;-59
2021/01/07 08:23:29;;;;;;;9.43;1.73;;;17.00;52.00;;;;;;10203553;29;20054;-59
2021/01/07 08:28:37;;;;;;;4.45;1.70;;;17.00;52.00;;;;;;10206641;29;20081;-62
2021/01/07 08:33:39;;;;;;;4.70;1.95;;;17.00;52.00;;;;;;10205998;29;20067;-59
2021/01/07 08:38:41;;;;;;;3.97;1.75;;;17.00;52.00;;;;;;10207925;29;20046;-60
2021/01/07 08:43:45;;;;;;;3.13;1.70;;;17.00;52.00;;;;;;10206946;29;20095;-59
2021/01/07 08:48:57;;;;;;;6.93;1.73;;;17.00;52.00;;;;;;10205050;29;20150;-61
2021/01/07 08:53:58;;;;;;;3.42;2.13;;;17.00;51.90;;;;;;10205246;29;20058;-60
2021/01/07 08:59:21;;;;;;;4.22;2.25;;;17.00;51.90;;;;;;10199180;29;20110;-60
2021/01/07 09:04:33;;;;;;;5.90;2.63;;;17.00;51.80;;;;;;10202914;29;20143;-60
2021/01/07 09:09:43;;;;;;;4.63;2.67;;;17.00;51.90;;;;;;10200215;29;20044;-60
2021/01/07 09:14:53;;;;;;;7.60;3.08;;;17.00;51.80;;;;;;10201261;29;20059;-60
2021/01/07 09:20:05;;;;;;;4.78;2.30;;;17.00;51.70;;;;;;10205420;29;20119;-60
2021/01/07 09:25:07;;;;;;;5.43;2.30;;;17.00;51.70;;;;;;10206536;29;20138;-60
2021/01/07 09:30:11;;;;;;;6.13;2.38;;;17.00;51.60;;;;;;10204857;29;20138;-61
2021/01/07 09:35:13;;;;;;;7.05;2.13;;;17.00;51.50;;;;;;10198868;29;20139;-60
2021/01/07 09:40:15;;;;;;;5.67;2.33;;;17.10;51.50;;;;;;10208943;29;20130;-61
2021/01/07 09:45:17;;;;;;;7.27;2.23;;;17.10;51.40;;;;;;10212247;29;20102;-60
2021/01/07 09:50:20;;;;;;;5.05;2.13;;;17.10;51.30;;;;;;10212822;29;20048;-63
2021/01/07 09:55:21;;;;;;;4.18;2.63;;;17.10;51.80;;;;;;10207733;29;20051;-65
2021/01/07 10:00:24;;;;;;;5.85;2.30;;;17.20;51.20;;;;;;10211636;29;20090;-60
2021/01/07 10:05:25;;;;;;;;;;;17.20;51.10;;;;;;10197678;29;20078;-62
2021/01/07 10:10:26;;;;;;;9.35;2.13;;;17.30;51.20;;;;;;10208168;29;20009;-62
2021/01/07 10:15:28;;;;;;;10.05;1.95;;;17.30;51.30;;;;;;10207751;29;20055;-63
2021/01/07 10:20:30;;;;;;;9.38;2.40;;;17.30;51.40;;;;;;10210012;29;20106;-62
2021/01/07 10:25:31;;;;;;;8.27;2.22;;;17.30;51.50;;;;;;10203728;29;20081;-62
2021/01/07 10:30:34;;;;;;;7.30;2.33;;;17.30;51.60;;;;;;10204901;29;20686;-64
2021/01/07 10:35:38;;;;;;;11.68;1.85;;;17.30;51.70;;;;;;10206934;29;20083;-63
2021/01/07 10:40:45;;;;;;;4.75;1.60;;;17.40;51.90;;;;;;10209887;29;20134;-63
2021/01/07 10:45:51;;;;;;;5.85;1.45;;;17.40;52.10;;;;;;10206257;29;20062;-62
2021/01/07 10:50:53;;;;;;;5.40;1.40;;;17.40;52.30;;;;;;10205991;29;20155;-63
2021/01/07 10:56:02;;;;;;;9.47;3.03;;;17.40;52.40;;;;;;10205077;29;20054;-61
2021/01/07 11:01:28;;;;;;;10.40;4.03;;;17.40;52.40;;;;;;10206509;29;20487;-60
2021/01/07 11:06:32;;;;;;;14.35;5.60;;;17.40;52.40;;;;;;10208067;29;20845;-61
2021/01/07 11:11:38;;;;;;;13.80;5.70;;;17.40;52.30;;;;;;10205760;29;20131;-62
2021/01/07 11:16:43;;;;;;;14.13;5.70;;;17.40;52.30;;;;;;10205926;29;20054;-62
2021/01/07 11:21:50;;;;;;;15.07;5.88;;;17.40;52.30;;;;;;10199006;29;20464;-61
2021/01/07 11:26:52;;;;;;;15.52;5.38;;;17.40;52.30;;;;;;10202850;29;20141;-61
2021/01/07 11:31:57;;;;;;;11.95;4.13;;;17.40;52.30;;;;;;10202558;29;20049;-62
2021/01/07 11:37:07;;;;;;;12.93;3.80;;;17.30;52.20;;;;;;10202278;29;20518;-61
2021/01/07 11:42:16;;;;;;;8.25;3.03;;;17.30;52.20;;;;;;10204856;29;20062;-61
2021/01/07 11:47:20;;;;;;;7.90;2.72;;;17.40;52.30;;;;;;10204526;29;20059;-60
2021/01/07 11:52:22;;;;;;;9.50;2.60;;;17.40;52.30;;;;;;10204640;29;20100;-63
2021/01/07 11:57:26;;;;;;;6.40;1.95;;;17.50;52.40;;;;;;10204150;29;20491;-53
2021/01/07 12:02:30;;;;;;;11.27;2.22;;;17.50;52.50;;;;;;10204694;29;20086;-52
2021/01/07 12:07:38;;;;;;;11.43;2.10;;;;;;;;;;10203474;29;20051;-64
2021/01/07 12:12:48;;;;;;;4.38;1.60;;;18.20;52.50;;;;;;10203373;29;20062;-61
2021/01/07 12:17:52;;;;;;;12.95;1.65;;;18.30;52.70;;;;;;10202535;29;20059;-61
2021/01/07 12:22:55;;;;;;;9.05;1.90;;;18.30;52.70;;;;;;10204676;29;20142;-61
2021/01/07 12:27:58;;;;;;;5.68;1.20;;;18.30;52.70;;;;;;10196735;29;20060;-63
2021/01/07 12:33:05;;;;;;;;;;;18.30;52.80;;;;;;10206117;29;20146;-64
2021/01/07 12:38:19;;;;;;;4.03;1.30;;;18.30;52.70;;;;;;10203860;29;19923;-61
2021/01/07 12:43:21;;;;;;;4.15;1.00;;;18.40;52.70;;;;;;10204214;29;20097;-63
2021/01/07 12:48:23;;;;;;;2.47;0.93;;;18.40;52.60;;;;;;10203164;29;20052;-62
2021/01/07 12:53:25;;;;;;;2.47;0.80;;;18.50;52.60;;;;;;10205090;29;20526;-62
2021/01/07 12:58:27;;;;;;;3.23;0.87;;;18.50;53.10;;;;;;10202597;29;20062;-63
2021/01/07 13:03:40;;;;;;;3.13;0.82;;;18.50;52.40;;;;;;10203185;29;20481;-61
2021/01/07 13:08:44;;;;;;;2.92;0.77;;;;;;;;;;10203478;29;20048;-60
2021/01/07 13:13:46;;;;;;;2.83;1.10;;;;;;;;;;10203425;29;20134;-59
2021/01/07 13:18:51;;;;;;;2.33;0.88;;;;;;;;;;10203792;29;20223;-61
2021/01/07 13:23:53;;;;;;;2.97;1.55;;;;;;;;;;10205199;29;20059;-62
2021/01/07 13:28:55;;;;;;;3.83;0.98;;;;;;;;;;10203293;29;20198;-61
2021/01/07 13:33:57;;;;;;;4.70;1.35;;;;;;;;;;10197200;29;20126;-60
2021/01/07 13:38:59;;;;;;;2.33;0.77;;;;;;;;;;10202368;29;20130;-60
2021/01/07 13:44:02;;;;;;;4.95;1.05;;;;;;;;;;10194554;29;20544;-61
2021/01/07 13:49:07;;;;;;;3.65;1.33;;;;;;;;;;10200848;29;20434;-61
2021/01/07 13:54:10;;;;;;;2.92;1.20;;;;;;;;;;10202536;29;20110;-60
2021/01/07 13:59:12;;;;;;;2.90;1.58;;;;;;;;;;10202786;29;20479;-61
2021/01/07 14:04:16;;;;;;;3.93;1.60;;;;;;;;;;10204656;29;20130;-61
2021/01/07 14:09:21;;;;;;;5.43;1.25;;;;;;;;;;10201546;29;20063;-61
2021/01/07 14:14:22;;;;;;;3.08;1.15;;;;;;;;;;10202623;29;20043;-63
2021/01/07 14:19:25;;;;;;;2.65;0.95;;;;;;;;;;10204280;29;20456;-60
2021/01/07 14:24:27;;;;;;;2.30;1.10;;;18.50;51.20;;;;;;10206196;29;20539;-60
2021/01/07 14:29:33;;;;;;;3.03;1.38;;;18.50;51.70;;;;;;10211235;29;20202;-61
2021/01/07 14:34:38;;;;;;;3.85;1.20;;;18.40;51.70;;;;;;10208943;29;20044;-61
2021/01/07 14:39:39;;;;;;;4.38;1.13;;;18.40;51.70;;;;;;10212554;29;20142;-60
2021/01/07 14:44:41;;;;;;;2.22;0.90;;;18.30;51.80;;;;;;10208940;29;20134;-61
2021/01/07 14:49:46;;;;;;;2.75;0.93;;;18.30;52.00;;;;;;10212483;29;20051;-61
2021/01/07 14:54:49;;;;;;;4.90;0.98;;;18.30;52.10;;;;;;10209377;29;20427;-63
2021/01/07 15:00:00;;;;;;;7.97;0.90;;;18.20;52.20;;;;;;10208612;29;20048;-58
2021/01/07 15:05:06;;;;;;;6.20;0.80;;;;;;;;;;10209211;29;20138;-63
2021/01/07 15:10:09;;;;;;;4.85;1.98;;;;;;;;;;10208200;29;20044;-61
2021/01/07 15:15:12;;;;;;;5.82;0.80;;;;;;;;;;10208104;29;20110;-60
2021/01/07 15:20:20;;;;;;;6.57;0.80;;;;;;;;;;10208593;29;20052;-62
2021/01/07 15:25:28;;;;;;;3.05;0.80;;;;;;;;;;10206841;29;20625;-63
2021/01/07 15:30:39;;;;;;;1.33;0.50;;;;;;;;;;10207303;29;20536;-61
2021/01/07 15:35:52;;;;;;;1.60;0.60;;;;;;;;;;10206161;29;20047;-60
2021/01/07 15:41:12;;;;;;;2.17;0.50;;;;;;;;;;10205195;29;20090;-62
2021/01/07 15:46:27;;;;;;;1.38;0.57;;;;;;;;;;10208907;29;20071;-63
2021/01/07 15:51:39;;;;;;;3.83;1.20;;;;;;;;;;10206978;29;20056;-63
2021/01/07 15:56:56;;;;;;;2.58;1.05;;;;;;;;;;10208281;29;20154;-63
2021/01/07 16:02:00;;;;;;;2.05;0.90;;;;;;;;;;10206580;29;20044;-63
2021/01/07 16:07:04;;;;;;;2.53;0.93;;;;;;;;;;10207111;29;20480;-62
2021/01/07 16:12:08;;;;;;;4.85;0.90;;;;;;;;;;10206822;29;20044;-63
2021/01/07 16:17:10;;;;;;;4.78;1.45;;;;;;;;;;10207836;29;20155;-64
2021/01/07 16:22:15;;;;;;;2.97;1.02;;;;;;;;;;10206507;29;20150;-63
2021/01/07 16:27:21;;;;;;;2.75;1.15;;;;;;;;;;10206360;29;20512;-62
2021/01/07 16:32:23;;;;;;;3.63;1.38;;;;;;;;;;10206310;29;20163;-62
2021/01/07 16:37:26;;;;;;;7.80;3.30;;;17.60;53.10;;;;;;10204998;29;20142;-62
2021/01/07 16:42:30;;;;;;;11.40;4.55;;;17.60;53.60;;;;;;10206287;29;20155;-62
2021/01/07 16:47:32;;;;;;;10.60;4.70;;;17.50;53.70;;;;;;10203798;29;20139;-62
2021/01/07 16:52:34;;;;;;;8.70;3.60;;;17.40;53.60;;;;;;10202220;29;20520;-62
2021/01/07 16:57:35;;;;;;;6.65;3.08;;;17.40;53.50;;;;;;10203634;29;20399;-62
2021/01/07 17:02:36;;;;;;;6.15;3.00;;;17.40;53.50;;;;;;10203589;29;20071;-61
2021/01/07 17:07:39;;;;;;;4.80;2.92;;;17.40;53.40;;;;;;10205073;29;20491;-61
2021/01/07 17:12:40;;;;;;;12.05;2.80;;;17.40;53.30;;;;;;10202302;29;20058;-62
2021/01/07 17:17:42;;;;;;;5.25;2.47;;;17.40;53.30;;;;;;10202339;29;20055;-62
2021/01/07 17:22:44;;;;;;;7.65;2.90;;;17.40;53.40;;;;;;10203519;29;20144;-62
2021/01/07 17:27:45;;;;;;;12.02;3.78;;;17.40;53.40;;;;;;10202439;29;20051;-62
2021/01/07 17:32:46;;;;;;;10.57;4.03;;;17.40;53.50;;;;;;10205500;29;20083;-63
2021/01/07 17:37:49;;;;;;;8.25;4.10;;;17.40;53.40;;;;;;10202935;29;20082;-63
2021/01/07 17:42:50;;;;;;;11.50;5.38;;;17.30;53.30;;;;;;10204816;29;20059;-62
2021/01/07 17:47:52;;;;;;;14.70;5.03;;;17.30;53.40;;;;;;10201336;29;20079;-63
2021/01/07 17:52:54;;;;;;;10.20;4.18;;;17.30;53.50;;;;;;10199268;29;20082;-63
2021/01/07 17:57:55;;;;;;;12.85;5.47;;;17.30;53.50;;;;;;10202243;28;20056;-63
2021/01/07 18:02:57;;;;;;;16.85;7.18;;;17.20;53.50;;;;;;10208822;29;20080;-63
2021/01/07 18:07:59;;;;;;;13.80;7.18;;;17.10;53.50;;;;;;10208836;29;20221;-63
2021/01/07 18:13:01;;;;;;;19.33;8.35;;;17.00;53.50;;;;;;10211081;29;20476;-65
2021/01/07 18:18:02;;;;;;;9.55;5.28;;;16.90;53.60;;;;;;10208196;29;20059;-63
2021/01/07 18:23:06;;;;;;;8.88;4.95;;;16.90;53.60;;;;;;10210668;29;20044;-62
2021/01/07 18:28:07;;;;;;;7.68;3.85;;;16.90;53.60;;;;;;10196925;29;20586;-64
2021/01/07 18:33:09;;;;;;;8.57;4.00;;;16.90;53.50;;;;;;10207296;29;20052;-62
2021/01/07 18:38:11;;;;;;;7.38;3.17;;;16.90;53.50;;;;;;10205057;29;20075;-60
2021/01/07 18:43:12;;;;;;;9.30;3.53;;;16.80;53.50;;;;;;10205552;29;20062;-61
2021/01/07 18:48:13;;;;;;;5.65;2.97;;;16.80;53.60;;;;;;10206576;29;20427;-61
2021/01/07 18:53:16;;;;;;;6.15;2.60;;;16.80;53.50;;;;;;10206291;29;20050;-61
2021/01/07 18:58:18;;;;;;;6.50;3.03;;;16.80;53.50;;;;;;10207294;29;20055;-62
2021/01/07 19:03:19;;;;;;;5.97;2.67;;;16.80;53.50;;;;;;10205337;29;20071;-61
2021/01/07 19:08:21;;;;;;;5.38;2.50;;;16.80;53.50;;;;;;10205633;29;20142;-61
2021/01/07 19:13:22;;;;;;;4.82;1.80;;;16.80;53.50;;;;;;10203428;29;20064;-68
2021/01/07 19:18:24;;;;;;;7.00;2.03;;;16.90;53.40;;;;;;10203626;29;20054;-62
2021/01/07 19:23:26;;;;;;;3.20;1.80;;;16.90;53.40;;;;;;10204129;29;20150;-63
2021/01/07 19:28:28;;;;;;;3.90;1.50;;;17.00;53.40;;;;;;10201936;29;20062;-62
2021/01/07 19:33:29;;;;;;;3.83;1.48;;;17.00;53.30;;;;;;10206041;29;20062;-62
2021/01/07 19:38:31;;;;;;;5.78;1.55;;;17.00;53.40;;;;;;10205379;29;20130;-62
2021/01/07 19:43:33;;;;;;;10.57;1.50;;;17.00;53.40;;;;;;10206723;29;20055;-63
2021/01/07 19:48:34;;;;;;;2.85;1.40;;;17.10;53.50;;;;;;10202165;29;20050;-62
2021/01/07 19:53:36;;;;;;;3.88;1.67;;;17.10;53.50;;;;;;10205018;29;20066;-64
2021/01/07 19:58:37;;;;;;;3.22;1.20;;;17.10;53.40;;;;;;10202299;29;20058;-63
2021/01/07 20:03:39;;;;;;;3.72;1.10;;;;;;;;;;10201089;29;20085;-59
2021/01/07 20:08:42;;;;;;;3.35;1.73;;;;;;;;;;10202835;29;20099;-63
2021/01/07 20:13:45;;;;;;;5.03;1.50;;;;;;;;;;10195474;29;20186;-62
2021/01/07 20:18:47;;;;;;;4.47;1.45;;;;;;;;;;10192932;29;20052;-62
2021/01/07 20:23:49;;;;;;;8.93;1.20;;;;;;;;;;10198564;29;20054;-63
2021/01/07 20:28:51;;;;;;;3.20;1.27;;;;;;;;;;10198761;29;20044;-63
2021/01/07 20:33:53;;;;;;;5.80;1.37;;;;;;;;;;10189157;29;20083;-63
2021/01/07 20:38:56;;;;;;;4.20;1.15;;;;;;;;;;10193535;29;20134;-63
2021/01/07 20:43:57;;;;;;;;;;;;;;;;;;10187838;29;20052;-62
2021/01/07 20:48:59;;;;;;;5.20;1.58;;;;;;;;;;10181673;29;19933;-62
2021/01/07 20:54:01;;;;;;;6.03;1.80;;;;;;;;;;10182370;29;20087;-62
2021/01/07 20:59:03;;;;;;;3.92;1.50;;;;;;;;;;10192034;29;20052;-63
2021/01/07 21:04:05;;;;;;;6.27;1.63;;;;;;;;;;10194207;29;20079;-63
2021/01/07 21:09:07;;;;;;;3.67;1.50;;;;;;;;;;10196471;29;20052;-63
2021/01/07 21:14:09;;;;;;;3.95;1.60;;;;;;;;;;10193115;29;20050;-63
2021/01/07 21:19:11;;;;;;;4.10;2.08;;;;;;;;;;10198168;29;20074;-64
2021/01/07 21:24:15;;;;;;;5.80;2.00;;;;;;;;;;10190685;29;20488;-63
2021/01/07 21:29:17;;;;;;;3.28;1.48;;;;;;;;;;10184821;29;21031;-63
2021/01/07 21:34:20;;;;;;;5.90;1.77;;;;;;;;;;10194471;29;20086;-64
2021/01/07 21:39:23;;;;;;;7.13;1.75;;;;;;;;;;10196770;29;21491;-64
2021/01/07 21:44:26;;;;;;;3.33;1.55;;;;;;;;;;10197754;29;20539;-64
2021/01/07 21:49:28;;;;;;;6.80;1.20;;;;;;;;;;10189531;29;20098;-64
2021/01/07 21:54:30;;;;;;;;;;;;;;;;;;10196942;29;20059;-64
2021/01/07 21:59:32;;;;;;;10.30;2.28;;;;;;;;;;10199085;29;19974;-64
2021/01/07 22:04:34;;;;;;;4.95;1.80;;;;;;;;;;10201977;29;20506;-63
2021/01/07 22:09:36;;;;;;;3.63;1.70;;;;;;;;;;10200990;29;20063;-63
2021/01/07 22:14:39;;;;;;;5.53;2.03;;;;;;;;;;10202318;29;20046;-64
2021/01/07 22:19:41;;;;;;;7.45;2.30;;;;;;;;;;10200871;29;20558;-63
2021/01/07 22:24:43;;;;;;;5.40;2.00;;;;;;;;;;10204100;29;20484;-64
2021/01/07 22:29:46;;;;;;;6.00;1.87;;;;;;;;;;10200045;29;20064;-64
2021/01/07 22:34:53;;;;;;;;;;;;;;;;;;10202851;29;20043;-65
2021/01/07 22:39:55;;;;;;;6.07;2.17;;;;;;;;;;10202245;29;19967;-63
2021/01/07 22:44:57;;;;;;;6.27;2.00;;;;;;;;;;10187111;29;20075;-64
2021/01/07 22:49:59;;;;;;;5.78;1.67;;;;;;;;;;10207031;29;20069;-64
2021/01/07 22:55:01;;;;;;;4.80;2.30;;;;;;;;;;10208840;29;20127;-64
2021/01/07 23:00:05;;;;;;;4.30;2.03;;;;;;;;;;10208701;29;20058;-64
2021/01/07 23:05:07;;;;;;;5.45;2.25;;;;;;;;;;10208203;29;20455;-64
2021/01/07 23:10:10;;;;;;;4.55;1.73;;;;;;;;;;10207458;29;20102;-64
2021/01/07 23:15:13;;;;;;;3.90;1.77;;;;;;;;;;10208949;28;20051;-64
2021/01/07 23:20:14;;;;;;;4.53;1.90;;;;;;;;;;10207218;29;20058;-64
2021/01/07 23:25:16;;;;;;;7.13;2.23;;;;;;;;;;10207033;29;20063;-62
2021/01/07 23:30:19;;;;;;;4.22;1.83;;;;;;;;;;10207334;29;20066;-64
2021/01/07 23:35:21;;;;;;;4.55;1.73;;;;;;;;;;10205890;29;20479;-64
2021/01/07 23:40:23;;;;;;;4.60;1.70;;;;;;;;;;10208655;29;20057;-64
2021/01/07 23:45:25;;;;;;;3.03;1.33;;;;;;;;;;10206113;29;20381;-64
2021/01/07 23:50:28;;;;;;;3.92;1.67;;;;;;;;;;10205220;29;20043;-64
2021/01/07 23:55:29;;;;;;;4.22;1.77;;;;;;;;;;10205298;29;20158;-63
